Time;durP1;ratioP1;P1;durP2;ratioP2;P2;SDS_P1;SDS_P2;PMS_P1;PMS_P2;Temp;Humidity;BMP_temperature;BMP_pressure;BME280_temperature;BME280_humidity;BME280_pressure;Samples;Min_cycle;Max_cycle;Signal;HPM_P1;HPM_P2
2021/03/25 00:01:56;;;;;;;231.95;26.65;;;;;;;;;;4980345;28;20423;-47
2021/03/25 00:04:24;;;;;;;238.65;27.40;;;;;;;;;;4991521;28;20045;-45
2021/03/25 00:06:56;;;;;;;232.65;25.92;;;;;;;;;;4976530;28;20019;-44
2021/03/25 00:09:23;;;;;;;;;;;;;;;;;;4975398;28;20035;-43
2021/03/25 00:11:50;;;;;;;187.88;22.52;;;;;;;;;;4982019;28;19941;-43
2021/03/25 00:14:17;;;;;;;195.70;22.92;;;;;;;;;;4975614;28;20022;-47
2021/03/25 00:16:44;;;;;;;197.40;23.65;;;;;;;;;;4978809;28;20034;-44
2021/03/25 00:19:12;;;;;;;175.18;21.70;;;;;;;;;;4992921;28;20021;-46
2021/03/25 00:21:39;;;;;;;153.27;20.92;;;;;;;;;;4975445;28;20073;-47
2021/03/25 00:24:07;;;;;;;150.65;20.33;;;;;;;;;;4982301;28;20037;-46
2021/03/25 00:26:34;;;;;;;168.30;19.63;;;;;;;;;;4987272;28;20169;-45
2021/03/25 00:29:01;;;;;;;130.88;19.13;;;;;;;;;;4992133;28;20398;-44
2021/03/25 00:31:28;;;;;;;123.80;16.85;;;;;;;;;;4993184;28;20046;-45
2021/03/25 00:33:56;;;;;;;134.05;19.08;;;;;;;;;;4972490;28;20022;-46
2021/03/25 00:36:23;;;;;;;126.72;17.45;;;;;;;;;;4991535;28;20026;-44
2021/03/25 00:38:51;;;;;;;142.10;19.50;;;;;;;;;;4992836;28;20470;-45
2021/03/25 00:41:18;;;;;;;119.85;17.27;;;;;;;;;;4974953;28;20545;-48
2021/03/25 00:43:45;;;;;;;139.85;19.35;;;;;;;;;;4992273;28;20125;-44
2021/03/25 00:46:12;;;;;;;113.85;16.27;;;;;;;;;;4992977;28;20101;-46
2021/03/25 00:48:39;;;;;;;109.32;15.45;;;;;;;;;;4966512;28;20050;-45
2021/03/25 00:51:06;;;;;;;117.88;16.33;;;;;;;;;;4982633;28;20109;-47
2021/03/25 00:53:35;;;;;;;127.63;16.83;;;;;;;;;;4981077;28;20027;-45
2021/03/25 00:56:03;;;;;;;98.63;16.50;;;;;;;;;;4972600;28;20026;-46
2021/03/25 00:58:30;;;;;;;128.77;21.13;;;;;;;;;;4980001;28;20023;-48
2021/03/25 01:00:57;;;;;;;259.17;52.10;;;;;;;;;;4992164;28;20026;-46
2021/03/25 01:03:28;;;;;;;168.35;30.48;;;;;;;;;;4992541;28;20422;-46
2021/03/25 01:05:55;;;;;;;156.50;27.23;;;;;;;;;;4991936;28;20385;-46
2021/03/25 01:08:24;;;;;;;107.50;20.58;;;;;;;;;;4992578;28;20081;-47
2021/03/25 01:10:54;;;;;;;83.20;14.02;;;;;;;;;;4992040;28;20042;-46
2021/03/25 01:13:24;;;;;;;84.03;13.85;;;;;;;;;;4975077;28;20069;-45
2021/03/25 01:15:51;;;;;;;32.75;5.43;;;;;;;;;;4990697;28;20426;-45
2021/03/25 01:18:20;;;;;;;106.07;8.52;;;;;;;;;;4986764;28;20034;-45
2021/03/25 01:20:47;;;;;;;145.65;9.35;;;;;;;;;;4983617;28;20101;-49
2021/03/25 01:23:14;;;;;;;133.30;9.20;;;;;;;;;;4990715;28;20534;-45
2021/03/25 01:25:42;;;;;;;168.48;11.45;;;;;;;;;;4988742;28;20030;-44
2021/03/25 01:28:10;;;;;;;179.18;11.57;;;;;;;;;;4989677;28;20113;-45
2021/03/25 01:30:38;;;;;;;133.68;10.77;;;;;;;;;;4975875;28;20038;-46
2021/03/25 01:33:06;;;;;;;157.60;12.13;;;;;;;;;;4986358;28;20486;-46
2021/03/25 01:35:34;;;;;;;133.98;10.93;;;;;;;;;;4990607;28;20451;-49
2021/03/25 01:38:02;;;;;;;107.70;9.68;;;;;;;;;;4973168;28;20080;-45
2021/03/25 01:40:35;;;;;;;87.35;9.20;;;;;;;;;;4992089;28;20105;-46
2021/03/25 01:43:11;;;;;;;95.97;9.27;;;;;;;;;;4989470;28;20069;-47
2021/03/25 01:45:44;;;;;;;79.07;9.05;;;;;;;;;;4989341;28;20042;-47
2021/03/25 01:48:12;;;;;;;71.85;8.10;;;;;;;;;;4990724;28;20026;-46
2021/03/25 01:50:39;;;;;;;88.40;8.65;;;;;;;;;;4989034;28;20114;-46
2021/03/25 01:53:06;;;;;;;86.47;9.30;;;;;;;;;;4990204;28;20023;-45
2021/03/25 01:55:36;;;;;;;82.60;8.13;;;;;;;;;;4991700;28;20015;-46
2021/03/25 01:58:21;;;;;;;84.40;8.20;;;;;;;;;;5000433;28;20371;-48
2021/03/25 02:00:48;;;;;;;59.10;7.60;;;;;;;;;;5011820;28;20021;-48
2021/03/25 02:03:24;;;;;;;64.00;6.75;;;;;;;;;;5011952;28;20425;-48
2021/03/25 02:06:03;;;;;;;50.70;7.15;;;;;;;;;;5012030;28;20048;-46
2021/03/25 02:08:30;;;;;;;70.20;9.05;;;;;;;;;;5012075;28;20018;-45
2021/03/25 02:11:03;;;;;;;57.05;7.05;;;;;;;;;;5012062;28;20053;-46
2021/03/25 02:13:48;;;;;;;71.28;7.70;;;;;;;;;;5012399;28;20022;-56
2021/03/25 02:16:17;;;;;;;57.13;7.57;;;;;;;;;;5012064;28;20492;-47
2021/03/25 02:18:54;;;;;;;42.38;6.75;;;;;;;;;;5012537;28;20042;-45
2021/03/25 02:21:23;;;;;;;54.90;6.40;;;;;;;;;;5010198;28;20116;-46
2021/03/25 02:24:09;;;;;;;44.95;6.55;;;;;;;;;;5012302;28;20052;-45
2021/03/25 02:26:39;;;;;;;48.50;7.38;;;;;;;;;;5012196;28;20030;-45
2021/03/25 02:29:08;;;;;;;37.58;6.30;;;;;;;;;;5001879;28;20081;-45
2021/03/25 02:31:37;;;;;;;34.40;6.40;;;;;;;;;;4991022;28;20482;-45
2021/03/25 02:34:08;;;;;;;44.75;6.45;;;;;;;;;;4991468;28;20030;-47
2021/03/25 02:36:46;;;;;;;40.83;5.80;;;;;;;;;;4991726;28;20023;-45
2021/03/25 02:39:17;;;;;;;37.20;5.70;;;;;;;;;;4992109;28;20023;-45
2021/03/25 02:41:46;;;;;;;39.08;5.72;;;;;;;;;;4991653;28;20046;-45
2021/03/25 02:44:19;;;;;;;39.00;5.68;;;;;;;;;;4991481;28;20058;-47
2021/03/25 02:46:53;;;;;;;41.92;6.20;;;;;;;;;;4991522;28;20081;-46
2021/03/25 02:49:22;;;;;;;50.78;5.68;;;;;;;;;;4991873;28;20026;-45
2021/03/25 02:51:52;;;;;;;31.83;5.68;;;;;;;;;;4991134;28;20048;-45
2021/03/25 02:54:19;;;;;;;32.17;5.78;;;;;;;;;;4974647;28;20466;-46
2021/03/25 02:56:48;;;;;;;38.63;6.07;;;;;;;;;;4991474;28;20023;-45
2021/03/25 02:59:20;;;;;;;31.90;5.18;;;;;;;;;;4991829;28;20030;-45
2021/03/25 03:01:50;;;;;;;31.77;5.78;;;;;;;;;;4991667;28;20027;-45
2021/03/25 03:04:24;;;;;;;29.63;5.60;;;;;;;;;;4991744;28;20018;-45
2021/03/25 03:06:53;;;;;;;35.42;6.05;;;;;;;;;;4991429;28;20430;-44
2021/03/25 03:09:25;;;;;;;30.73;5.10;;;;;;;;;;4991577;28;20030;-45
2021/03/25 03:11:54;;;;;;;36.63;5.97;;;;;;;;;;4991619;28;20037;-47
2021/03/25 03:14:31;;;;;;;37.00;7.00;;;;;;;;;;4991340;28;20029;-46
2021/03/25 03:17:05;;;;;;;29.95;5.50;;;;;;;;;;4991796;28;20030;-44
2021/03/25 03:19:35;;;;;;;28.92;6.00;;;;;;;;;;4994410;28;20576;-46
2021/03/25 03:22:04;;;;;;;23.95;5.00;;;;;;;;;;4995539;28;20394;-44
2021/03/25 03:24:32;;;;;;;29.38;4.93;;;;;;;;;;4994746;28;20044;-47
2021/03/25 03:27:06;;;;;;;32.63;5.93;;;;;;;;;;4995299;28;20130;-48
2021/03/25 03:29:33;;;;;;;32.67;6.45;;;;;;;;;;4994690;28;20050;-49
2021/03/25 03:32:15;;;;;;;22.35;4.72;;;;;;;;;;4995019;28;20034;-47
2021/03/25 03:34:44;;;;;;;26.00;4.57;;;;;;;;;;4994843;28;20443;-48
2021/03/25 03:37:19;;;;;;;24.88;5.20;;;;;;;;;;4995114;28;20030;-47
2021/03/25 03:39:46;;;;;;;28.15;5.43;;;;;;;;;;4994578;28;20022;-47
2021/03/25 03:42:15;;;;;;;33.65;5.40;;;;;;;;;;4994756;28;20050;-46
2021/03/25 03:44:44;;;;;;;26.27;5.07;;;;;;;;;;4994138;28;20097;-47
2021/03/25 03:47:12;;;;;;;27.30;4.97;;;;;;;;;;4994887;28;20092;-47
2021/03/25 03:49:45;;;;;;;31.23;5.50;;;;;;;;;;4994433;28;20038;-45
2021/03/25 03:52:15;;;;;;;28.40;4.78;;;;;;;;;;4994700;28;20359;-46
2021/03/25 03:54:44;;;;;;;28.13;5.30;;;;;;;;;;4994145;28;20035;-46
2021/03/25 03:57:17;;;;;;;21.13;5.47;;;;;;;;;;4994702;28;20076;-46
2021/03/25 04:00:07;;;;;;;22.30;4.55;;;;;;;;;;4994441;28;20022;-44
2021/03/25 04:02:37;;;;;;;28.88;5.43;;;;;;;;;;4984640;28;20031;-46
2021/03/25 04:05:10;;;;;;;23.13;4.68;;;;;;;;;;4994175;28;20039;-46
2021/03/25 04:07:39;;;;;;;24.10;4.88;;;;;;;;;;4994552;28;20046;-47
2021/03/25 04:10:09;;;;;;;26.45;4.18;;;;;;;;;;4993948;28;20494;-47
2021/03/25 04:12:38;;;;;;;17.38;4.20;;;;;;;;;;4994475;28;20394;-44
2021/03/25 04:15:05;;;;;;;28.25;5.50;;;;;;;;;;4994231;28;20375;-44
2021/03/25 04:17:35;;;;;;;24.10;4.55;;;;;;;;;;4994315;28;20597;-46
2021/03/25 04:20:05;;;;;;;23.83;4.32;;;;;;;;;;4994539;28;20050;-44
2021/03/25 04:22:37;;;;;;;25.17;5.03;;;;;;;;;;4993756;28;20109;-45
2021/03/25 04:25:11;;;;;;;25.37;5.10;;;;;;;;;;4994316;28;20023;-45
2021/03/25 04:28:04;;;;;;;23.23;4.63;;;;;;;;;;4993799;28;20105;-44
2021/03/25 04:30:42;;;;;;;21.85;4.20;;;;;;;;;;4989871;28;20042;-45
2021/03/25 04:33:09;;;;;;;23.75;4.75;;;;;;;;;;4993475;28;20156;-46
2021/03/25 04:35:36;;;;;;;20.23;4.38;;;;;;;;;;4994032;28;20088;-46
2021/03/25 04:38:04;;;;;;;20.20;4.00;;;;;;;;;;4993561;28;20037;-45
2021/03/25 04:40:34;;;;;;;21.40;4.43;;;;;;;;;;4993923;28;20112;-44
2021/03/25 04:43:01;;;;;;;24.40;4.45;;;;;;;;;;4993101;28;20227;-48
2021/03/25 04:45:54;;;;;;;19.50;3.83;;;;;;;;;;4993545;28;20462;-45
2021/03/25 04:48:23;;;;;;;20.77;4.25;;;;;;;;;;4990319;28;20030;-46
2021/03/25 04:50:57;;;;;;;19.08;4.20;;;;;;;;;;4993507;28;20057;-46
2021/03/25 04:53:32;;;;;;;16.45;3.72;;;;;;;;;;4993195;28;20034;-46
2021/03/25 04:55:59;;;;;;;19.70;4.65;;;;;;;;;;4993506;28;20026;-45
2021/03/25 04:58:31;;;;;;;21.90;4.32;;;;;;;;;;4993280;28;20386;-45
2021/03/25 05:01:06;;;;;;;17.20;4.38;;;;;;;;;;4993595;28;20029;-46
2021/03/25 05:03:33;;;;;;;20.80;4.38;;;;;;;;;;4992974;28;20030;-46
2021/03/25 05:06:01;;;;;;;21.02;4.45;;;;;;;;;;4993489;28;20029;-45
2021/03/25 05:08:32;;;;;;;28.67;5.78;;;;;;;;;;4993059;28;20026;-46
2021/03/25 05:11:14;;;;;;;19.08;4.50;;;;;;;;;;4993121;28;20054;-45
2021/03/25 05:13:43;;;;;;;17.90;4.13;;;;;;;;;;4992608;28;20030;-47
2021/03/25 05:16:25;;;;;;;17.30;3.72;;;;;;;;;;4993321;28;20033;-47
2021/03/25 05:19:01;;;;;;;30.73;4.97;;;;;;;;;;4992565;28;20030;-48
2021/03/25 05:21:36;;;;;;;16.05;4.25;;;;;;;;;;4993287;28;20505;-47
2021/03/25 05:24:12;;;;;;;19.10;4.60;;;;;;;;;;4992750;28;20504;-46
2021/03/25 05:26:42;;;;;;;15.73;3.30;;;;;;;;;;4993034;28;20077;-45
2021/03/25 05:29:09;;;;;;;19.13;4.03;;;;;;;;;;4992622;28;20019;-45
2021/03/25 05:31:38;;;;;;;18.25;4.53;;;;;;;;;;4992950;28;20360;-45
2021/03/25 05:34:07;;;;;;;18.20;4.00;;;;;;;;;;4992371;28;20041;-45
2021/03/25 05:36:34;;;;;;;15.75;3.50;;;;;;;;;;4992883;28;20030;-46
2021/03/25 05:39:01;;;;;;;24.23;4.50;;;;;;;;;;4992435;28;20030;-45
2021/03/25 05:41:34;;;;;;;15.10;3.65;;;;;;;;;;4992863;28;20418;-47
2021/03/25 05:44:20;;;;;;;17.85;3.70;;;;;;;;;;4992339;28;20042;-44
2021/03/25 05:46:54;;;;;;;22.05;3.65;;;;;;;;;;4992767;28;20117;-45
2021/03/25 05:49:41;;;;;;;17.95;4.18;;;;;;;;;;4975149;28;20438;-45
2021/03/25 05:52:08;;;;;;;13.50;3.25;;;;;;;;;;4992478;28;20030;-46
2021/03/25 05:54:35;;;;;;;19.30;3.90;;;;;;;;;;4992108;28;20019;-45
2021/03/25 05:57:08;;;;;;;12.65;2.92;;;;;;;;;;4992706;28;20027;-50
2021/03/25 05:59:57;;;;;;;18.63;4.07;;;;;;;;;;4992756;28;20058;-50
2021/03/25 06:02:30;;;;;;;16.27;3.65;;;;;;;;;;4992984;28;20042;-46
2021/03/25 06:04:57;;;;;;;14.27;3.85;;;;;;;;;;4992291;28;20018;-46
2021/03/25 06:07:50;;;;;;;18.88;4.30;;;;;;;;;;4974454;28;20030;-46
2021/03/25 06:10:16;;;;;;;;;;;;;;;;;;4992667;28;20026;-45
2021/03/25 06:12:52;;;;;;;15.90;3.33;;;;;;;;;;4992309;28;20555;-49
2021/03/25 06:15:28;;;;;;;17.35;3.97;;;;;;;;;;4992333;28;20026;-46
2021/03/25 06:18:13;;;;;;;14.93;3.28;;;;;;;;;;4992129;28;20022;-48
2021/03/25 06:20:49;;;;;;;14.13;4.03;;;;;;;;;;4991934;28;20026;-46
2021/03/25 06:23:22;;;;;;;17.98;3.92;;;;;;;;;;4992316;28;20034;-46
2021/03/25 06:25:49;;;;;;;17.55;3.70;;;;;;;;;;4974919;28;20080;-45
2021/03/25 06:28:28;;;;;;;16.63;3.60;;;;;;;;;;4991908;28;20673;-48
2021/03/25 06:31:04;;;;;;;14.95;2.80;;;;;;;;;;4992176;28;20054;-48
2021/03/25 06:33:38;;;;;;;13.35;3.42;;;;;;;;;;4991403;28;20094;-46
2021/03/25 06:36:12;;;;;;;15.38;3.75;;;;;;;;;;4992525;28;20037;-46
2021/03/25 06:38:41;;;;;;;19.38;4.00;;;;;;;;;;4991714;28;20054;-47
2021/03/25 06:41:12;;;;;;;19.17;4.20;;;;;;;;;;4992311;28;20061;-46
2021/03/25 06:43:52;;;;;;;20.33;3.22;;;;;;;;;;4991302;28;20046;-46
2021/03/25 06:46:32;;;;;;;14.75;3.40;;;;;;;;;;4992094;28;20553;-44
2021/03/25 06:49:07;;;;;;;14.73;3.13;;;;;;;;;;4991561;28;20113;-45
2021/03/25 06:51:35;;;;;;;18.02;3.92;;;;;;;;;;4974508;28;20041;-45
2021/03/25 06:54:16;;;;;;;16.05;3.03;;;;;;;;;;4994395;28;20031;-47
2021/03/25 06:56:45;;;;;;;22.25;3.40;;;;;;;;;;4995945;28;20030;-48
2021/03/25 06:59:17;;;;;;;16.92;3.58;;;;;;;;;;4995338;28;20038;-45
2021/03/25 07:01:49;;;;;;;23.17;3.38;;;;;;;;;;4995920;28;20034;-46
2021/03/25 07:04:15;;;;;;;;;;;;;;;;;;4995455;28;20113;-46
2021/03/25 07:06:43;;;;;;;16.45;2.83;;;;;;;;;;4978357;28;20321;-45
2021/03/25 07:09:10;;;;;;;23.15;3.42;;;;;;;;;;4995154;28;20076;-46
2021/03/25 07:11:38;;;;;;;27.05;3.50;;;;;;;;;;4995501;28;20043;-46
2021/03/25 07:14:28;;;;;;;24.85;3.08;;;;;;;;;;4995229;28;20034;-46
2021/03/25 07:16:55;;;;;;;35.10;3.72;;;;;;;;;;4995215;28;20030;-45
2021/03/25 07:19:23;;;;;;;38.20;3.58;;;;;;;;;;4995034;28;20018;-45
2021/03/25 07:21:51;;;;;;;44.05;3.95;;;;;;;;;;4995047;28;20030;-45
2021/03/25 07:24:24;;;;;;;43.38;3.97;;;;;;;;;;4995074;28;20022;-45
2021/03/25 07:26:56;;;;;;;33.03;4.47;;;;;;;;;;4995615;28;20026;-47
2021/03/25 07:29:29;;;;;;;49.20;4.68;;;;;;;;;;4994185;28;20487;-45
2021/03/25 07:32:14;;;;;;;32.00;3.63;;;;;;;;;;4995372;28;20057;-46
2021/03/25 07:34:45;;;;;;;24.25;3.05;;;;;;;;;;4994572;28;20029;-45
2021/03/25 07:37:14;;;;;;;23.48;3.25;;;;;;;;;;4995118;28;20034;-46
2021/03/25 07:39:49;;;;;;;31.88;3.72;;;;;;;;;;4994569;28;20037;-47
2021/03/25 07:42:33;;;;;;;26.45;2.67;;;;;;;;;;4995018;28;20030;-45
2021/03/25 07:45:20;;;;;;;37.38;3.17;;;;;;;;;;4994090;28;20050;-47
2021/03/25 07:47:47;;;;;;;24.60;3.05;;;;;;;;;;4977857;28;20081;-45
2021/03/25 07:50:20;;;;;;;26.58;3.28;;;;;;;;;;4994225;28;20394;-45
2021/03/25 07:52:48;;;;;;;38.72;3.58;;;;;;;;;;4994627;28;20023;-45
2021/03/25 07:55:25;;;;;;;22.25;2.83;;;;;;;;;;4994426;28;20367;-45
2021/03/25 07:57:53;;;;;;;25.55;2.88;;;;;;;;;;4994937;28;20023;-45
2021/03/25 08:00:20;;;;;;;25.05;3.13;;;;;;;;;;4994251;28;20037;-45
2021/03/25 08:02:47;;;;;;;26.05;2.53;;;;;;;;;;4994685;28;20033;-44
2021/03/25 08:05:22;;;;;;;13.23;2.28;;;;;;;;;;4992877;28;20668;-44
2021/03/25 08:07:50;;;;;;;27.63;3.15;;;;;;;;;;4994691;28;20495;-45
2021/03/25 08:10:35;;;;;;;14.25;2.58;;;;;;;;;;4994395;28;20112;-45
2021/03/25 08:13:23;;;;;;;13.85;2.38;;;;;;;;;;4994397;28;20034;-45
2021/03/25 08:15:51;;;;;;;17.40;2.28;;;;;;;;;;4993849;28;20126;-44
2021/03/25 08:18:26;;;;;;;15.90;2.78;;;;;;;;;;4994568;28;20072;-44
2021/03/25 08:21:05;;;;;;;15.52;2.50;;;;;;;;;;4994059;28;20018;-44
2021/03/25 08:23:38;;;;;;;16.23;3.17;;;;;;;;;;4994258;28;20034;-49
2021/03/25 08:26:11;;;;;;;14.57;2.20;;;;;;;;;;4993888;28;20022;-48
2021/03/25 08:28:38;;;;;;;13.45;2.35;;;;;;;;;;4994328;28;20153;-45
2021/03/25 08:31:11;;;;;;;13.60;2.00;;;;;;;;;;4994250;28;20041;-47
2021/03/25 08:33:37;;;;;;;;;;;;;;;;;;4994015;28;20471;-46
2021/03/25 08:36:04;;;;;;;6.40;1.70;;;;;;;;;;4993935;28;19912;-46
2021/03/25 08:38:37;;;;;;;11.75;2.53;;;;;;;;;;4993405;28;20033;-46
2021/03/25 08:41:08;;;;;;;8.88;2.42;;;;;;;;;;4994117;28;20019;-48
2021/03/25 08:43:35;;;;;;;13.15;2.08;;;;;;;;;;4993205;28;20022;-47
2021/03/25 08:46:08;;;;;;;10.75;1.70;;;;;;;;;;4993686;28;20398;-49
2021/03/25 08:48:41;;;;;;;9.93;2.03;;;;;;;;;;4993580;28;20045;-47
2021/03/25 08:51:11;;;;;;;10.98;1.95;;;;;;;;;;4993526;28;20050;-46
2021/03/25 08:53:41;;;;;;;11.13;2.15;;;;;;;;;;4993241;28;20046;-46
2021/03/25 08:56:26;;;;;;;12.68;2.08;;;;;;;;;;4993442;28;20398;-46
2021/03/25 08:58:55;;;;;;;10.57;2.38;;;;;;;;;;4993037;28;20018;-47
2021/03/25 09:01:27;;;;;;;8.98;2.28;;;;;;;;;;4993547;28;20031;-46
2021/03/25 09:03:59;;;;;;;9.63;1.90;;;;;;;;;;4992996;28;20042;-44
2021/03/25 09:06:28;;;;;;;17.42;2.10;;;;;;;;;;4993304;28;20026;-47
2021/03/25 09:09:18;;;;;;;7.45;1.60;;;;;;;;;;4992943;28;20069;-48
2021/03/25 09:11:45;;;;;;;8.25;1.45;;;;;;;;;;4993090;28;20046;-48
2021/03/25 09:14:22;;;;;;;10.25;1.65;;;;;;;;;;4993022;28;20493;-46
2021/03/25 09:16:50;;;;;;;10.68;1.98;;;;;;;;;;4992775;28;20471;-46
2021/03/25 09:19:27;;;;;;;8.48;1.95;;;;;;;;;;4992670;28;20413;-47
2021/03/25 09:21:55;;;;;;;7.93;2.00;;;;;;;;;;4993175;28;20026;-47
2021/03/25 09:24:22;;;;;;;10.75;1.73;;;;;;;;;;4992801;28;20497;-46
2021/03/25 09:26:50;;;;;;;10.20;2.28;;;;;;;;;;4992690;28;20030;-45
2021/03/25 09:29:18;;;;;;;7.57;2.17;;;;;;;;;;4992367;28;20046;-45
2021/03/25 09:31:57;;;;;;;9.73;1.63;;;;;;;;;;4993236;28;20117;-45
2021/03/25 09:34:24;;;;;;;5.80;1.75;;;;;;;;;;4992633;28;20027;-47
2021/03/25 09:37:06;;;;;;;10.45;1.83;;;;;;;;;;4992646;28;20109;-45
2021/03/25 09:39:35;;;;;;;9.48;1.52;;;;;;;;;;4992267;28;20506;-45
2021/03/25 09:42:21;;;;;;;8.05;1.63;;;;;;;;;;4992890;28;20038;-46
2021/03/25 09:44:49;;;;;;;7.78;1.40;;;;;;;;;;4991890;28;20043;-44
2021/03/25 09:47:27;;;;;;;8.32;2.08;;;;;;;;;;4992787;28;20026;-45
2021/03/25 09:50:03;;;;;;;8.63;1.73;;;;;;;;;;4974961;28;20473;-47
2021/03/25 09:52:53;;;;;;;5.80;1.33;;;;;;;;;;4975322;28;20065;-45
2021/03/25 09:55:22;;;;;;;11.45;1.70;;;;;;;;;;4982392;28;20557;-45
2021/03/25 09:57:49;;;;;;;5.53;1.70;;;;;;;;;;4992434;28;20041;-45
2021/03/25 10:00:19;;;;;;;6.88;1.83;;;;;;;;;;4992412;28;20018;-45
2021/03/25 10:02:51;;;;;;;7.45;1.50;;;;;;;;;;4992185;28;20496;-45
2021/03/25 10:05:18;;;;;;;6.03;1.20;;;;;;;;;;4992529;28;20014;-47
2021/03/25 10:07:45;;;;;;;7.22;1.63;;;;;;;;;;4991928;28;20030;-45
2021/03/25 10:10:30;;;;;;;4.90;1.50;;;;;;;;;;4992627;28;20505;-45
2021/03/25 10:13:12;;;;;;;5.68;1.23;;;;;;;;;;4991923;28;20034;-46
2021/03/25 10:15:58;;;;;;;6.80;1.60;;;;;;;;;;4992611;28;20034;-46
2021/03/25 10:18:25;;;;;;;6.80;1.33;;;;;;;;;;4992654;28;20034;-46
2021/03/25 10:20:54;;;;;;;6.30;1.50;;;;;;;;;;4992263;28;20025;-46
2021/03/25 10:23:24;;;;;;;6.50;1.52;;;;;;;;;;4991995;28;20032;-45
2021/03/25 10:25:53;;;;;;;9.07;1.77;;;;;;;;;;4992396;28;20011;-46
2021/03/25 10:28:28;;;;;;;6.32;1.75;;;;;;;;;;4991023;28;20069;-45
2021/03/25 10:30:56;;;;;;;5.53;1.30;;;;;;;;;;4991928;28;20045;-46
2021/03/25 10:33:24;;;;;;;4.90;1.38;;;;;;;;;;4991545;28;20053;-45
2021/03/25 10:35:53;;;;;;;8.45;1.40;;;;;;;;;;4992358;28;20057;-46
2021/03/25 10:38:23;;;;;;;4.35;1.25;;;;;;;;;;4991514;28;20022;-46
2021/03/25 10:40:55;;;;;;;7.40;1.52;;;;;;;;;;4991995;28;20029;-45
2021/03/25 10:43:51;;;;;;;9.13;1.50;;;;;;;;;;4991556;28;20026;-46
2021/03/25 10:46:30;;;;;;;5.47;1.38;;;;;;;;;;4990337;28;20053;-46
2021/03/25 10:49:01;;;;;;;3.65;1.60;;;;;;;;;;4991276;28;20034;-46
2021/03/25 10:51:29;;;;;;;6.65;1.40;;;;;;;;;;4992130;28;20121;-47
2021/03/25 10:53:57;;;;;;;5.47;1.73;;;;;;;;;;4991715;28;20471;-50
2021/03/25 10:56:38;;;;;;;6.93;1.20;;;;;;;;;;4992028;28;20030;-46
2021/03/25 10:59:11;;;;;;;8.43;1.20;;;;;;;;;;4991132;28;20557;-47
2021/03/25 11:01:39;;;;;;;5.57;1.27;;;;;;;;;;4991819;28;20026;-44
2021/03/25 11:04:24;;;;;;;5.07;1.40;;;;;;;;;;4991666;28;20498;-45
2021/03/25 11:06:51;;;;;;;5.28;1.40;;;;;;;;;;4991531;28;20054;-46
2021/03/25 11:09:21;;;;;;;6.35;1.27;;;;;;;;;;4990905;28;20015;-48
2021/03/25 11:12:00;;;;;;;4.55;1.13;;;;;;;;;;4990979;28;20034;-45
2021/03/25 11:14:40;;;;;;;7.82;1.48;;;;;;;;;;4991763;28;20533;-46
2021/03/25 11:17:20;;;;;;;11.68;2.00;;;;;;;;;;4988408;28;20517;-48
2021/03/25 11:20:07;;;;;;;16.40;2.35;;;;;;;;;;4990018;28;20101;-47
2021/03/25 11:22:35;;;;;;;16.48;2.30;;;;;;;;;;4989059;28;20475;-47
2021/03/25 11:25:04;;;;;;;13.07;1.80;;;;;;;;;;4989381;28;20041;-48
2021/03/25 11:27:31;;;;;;;19.27;2.60;;;;;;;;;;4990996;28;20026;-48
2021/03/25 11:30:01;;;;;;;14.63;2.00;;;;;;;;;;4987240;28;20030;-50
2021/03/25 11:32:55;;;;;;;13.70;1.80;;;;;;;;;;4989811;28;20030;-48
2021/03/25 11:35:22;;;;;;;40.58;2.92;;;;;;;;;;4972919;28;20061;-46
2021/03/25 11:37:49;;;;;;;27.17;3.10;;;;;;;;;;4988531;28;20201;-45
2021/03/25 11:40:19;;;;;;;19.48;2.30;;;;;;;;;;4989910;28;20022;-55
2021/03/25 11:42:47;;;;;;;20.98;3.33;;;;;;;;;;4994816;28;20084;-47
2021/03/25 11:45:32;;;;;;;20.33;1.90;;;;;;;;;;4991909;28;20099;-49
2021/03/25 11:47:59;;;;;;;31.15;3.13;;;;;;;;;;4994713;28;20034;-50
2021/03/25 11:50:26;;;;;;;21.92;2.22;;;;;;;;;;4993022;28;20502;-50
2021/03/25 11:52:55;;;;;;;15.68;2.20;;;;;;;;;;4984741;28;20475;-48
2021/03/25 11:55:44;;;;;;;21.45;2.13;;;;;;;;;;4974117;28;20133;-45
2021/03/25 11:58:16;;;;;;;25.67;2.45;;;;;;;;;;4980440;28;20418;-47
2021/03/25 12:00:55;;;;;;;22.73;2.13;;;;;;;;;;4993200;28;20651;-46
2021/03/25 12:03:27;;;;;;;25.63;2.42;;;;;;;;;;4993645;28;20076;-47
2021/03/25 12:05:55;;;;;;;14.35;2.40;;;;;;;;;;4991965;28;20580;-44
2021/03/25 12:08:24;;;;;;;15.65;2.20;;;;;;;;;;4991997;28;20066;-47
2021/03/25 12:10:59;;;;;;;29.02;2.88;;;;;;;;;;4991275;28;20117;-46
2021/03/25 12:13:26;;;;;;;28.25;4.35;;;;;;;;;;4993412;28;20037;-48
2021/03/25 12:15:53;;;;;;;37.00;3.25;;;;;;;;;;4993305;28;20109;-45
2021/03/25 12:18:26;;;;;;;22.20;2.78;;;;;;;;;;4992969;28;20033;-47
2021/03/25 12:20:54;;;;;;;22.10;2.75;;;;;;;;;;4991367;28;20026;-44
2021/03/25 12:23:27;;;;;;;13.48;1.55;;;;;;;;;;4992824;28;20026;-47
2021/03/25 12:25:54;;;;;;;8.68;1.75;;;;;;;;;;4994010;28;20475;-44
2021/03/25 12:28:22;;;;;;;19.67;1.77;;;;;;;;;;4993493;28;20018;-46
2021/03/25 12:30:49;;;;;;;15.23;1.60;;;;;;;;;;4993437;28;20053;-47
2021/03/25 12:33:17;;;;;;;10.75;2.17;;;;;;;;;;4973871;28;20026;-44
2021/03/25 12:35:44;;;;;;;8.63;1.67;;;;;;;;;;4993331;28;20037;-43
2021/03/25 12:38:12;;;;;;;7.50;1.77;;;;;;;;;;4993061;28;20027;-43
2021/03/25 12:40:39;;;;;;;10.07;1.80;;;;;;;;;;4976156;28;20030;-45
2021/03/25 12:43:07;;;;;;;25.13;2.20;;;;;;;;;;4991818;28;20030;-45
2021/03/25 12:45:35;;;;;;;8.20;1.75;;;;;;;;;;4986971;28;20050;-44
2021/03/25 12:48:03;;;;;;;9.90;2.35;;;;;;;;;;4992664;28;20029;-44
2021/03/25 12:50:30;;;;;;;9.75;1.80;;;;;;;;;;4991161;28;20042;-44
2021/03/25 12:52:57;;;;;;;10.35;1.58;;;;;;;;;;4993090;28;20427;-44
2021/03/25 12:55:25;;;;;;;16.92;2.08;;;;;;;;;;4992676;28;20022;-45
2021/03/25 12:57:52;;;;;;;20.30;2.78;;;;;;;;;;4990110;28;20061;-46
2021/03/25 13:00:28;;;;;;;15.80;1.88;;;;;;;;;;4992549;28;20061;-44
2021/03/25 13:02:55;;;;;;;12.00;1.90;;;;;;;;;;4993321;28;20545;-44
2021/03/25 13:05:24;;;;;;;15.18;1.83;;;;;;;;;;4975004;28;20487;-43
2021/03/25 13:07:51;;;;;;;23.33;2.53;;;;;;;;;;4992268;28;20118;-46
2021/03/25 13:10:19;;;;;;;12.73;1.58;;;;;;;;;;4990632;28;20113;-45
2021/03/25 13:12:47;;;;;;;18.00;1.98;;;;;;;;;;4992875;28;20031;-44
2021/03/25 13:15:15;;;;;;;26.00;2.55;;;;;;;;;;4992413;28;20510;-45
2021/03/25 13:17:42;;;;;;;17.63;2.22;;;;;;;;;;4992422;28;20031;-44
2021/03/25 13:20:10;;;;;;;18.58;1.83;;;;;;;;;;4991238;28;20069;-47
2021/03/25 13:22:37;;;;;;;12.68;1.85;;;;;;;;;;4991845;28;20053;-47
2021/03/25 13:25:06;;;;;;;9.13;1.95;;;;;;;;;;4991636;28;20031;-43
2021/03/25 13:27:33;;;;;;;8.93;1.92;;;;;;;;;;4991221;28;20014;-43
2021/03/25 13:30:00;;;;;;;11.45;1.60;;;;;;;;;;4991585;28;20031;-44
2021/03/25 13:32:27;;;;;;;9.00;1.67;;;;;;;;;;4990518;28;20045;-47
2021/03/25 13:34:54;;;;;;;12.20;1.77;;;;;;;;;;4991768;28;20054;-47
2021/03/25 13:37:21;;;;;;;11.50;1.67;;;;;;;;;;4992598;28;20045;-43
2021/03/25 13:39:48;;;;;;;13.25;1.75;;;;;;;;;;4991302;28;20026;-45
2021/03/25 13:42:17;;;;;;;16.65;1.83;;;;;;;;;;4991876;28;20050;-45
2021/03/25 13:44:44;;;;;;;5.70;1.15;;;;;;;;;;4990468;28;20835;-46
2021/03/25 13:47:11;;;;;;;10.68;1.63;;;;;;;;;;4991226;28;20106;-47
2021/03/25 13:49:38;;;;;;;10.88;3.42;;;;;;;;;;4992246;28;20026;-45
2021/03/25 13:52:05;;;;;;;17.20;3.78;;;;;;;;;;4991661;28;20109;-47
2021/03/25 13:54:33;;;;;;;17.02;3.72;;;;;;;;;;4992495;28;20069;-46
2021/03/25 13:57:00;;;;;;;17.08;3.42;;;;;;;;;;4989558;28;20034;-45
2021/03/25 13:59:27;;;;;;;13.23;4.13;;;;;;;;;;4992317;28;20399;-46
2021/03/25 14:01:54;;;;;;;16.15;4.40;;;;;;;;;;4990565;28;20034;-45
2021/03/25 14:04:21;;;;;;;13.10;3.83;;;;;;;;;;4991297;28;20102;-47
2021/03/25 14:06:48;;;;;;;14.10;3.58;;;;;;;;;;4988599;28;20076;-44
2021/03/25 14:09:18;;;;;;;12.70;3.90;;;;;;;;;;4988379;28;20022;-45
2021/03/25 14:11:45;;;;;;;8.02;3.20;;;;;;;;;;4990561;28;20064;-46
2021/03/25 14:14:12;;;;;;;8.85;3.45;;;;;;;;;;4990809;28;20015;-44
2021/03/25 14:16:39;;;;;;;15.43;2.70;;;;;;;;;;4991420;28;20045;-45
2021/03/25 14:19:07;;;;;;;8.98;3.15;;;;;;;;;;4991203;28;20050;-45
2021/03/25 14:21:34;;;;;;;8.35;2.60;;;;;;;;;;4988831;28;20525;-43
2021/03/25 14:24:01;;;;;;;9.52;2.53;;;;;;;;;;4990103;28;20031;-43
2021/03/25 14:26:28;;;;;;;10.35;1.92;;;;;;;;;;4984351;28;20073;-44
2021/03/25 14:28:55;;;;;;;5.13;1.98;;;;;;;;;;4984076;28;20031;-42
2021/03/25 14:31:23;;;;;;;5.47;1.80;;;;;;;;;;4982635;28;20082;-44
2021/03/25 14:33:50;;;;;;;5.65;1.98;;;;;;;;;;4987575;28;20064;-44
2021/03/25 14:36:17;;;;;;;4.43;1.98;;;;;;;;;;4989569;28;20029;-46
2021/03/25 14:38:50;;;;;;;7.95;1.90;;;;;;;;;;4990599;28;20426;-46
2021/03/25 14:41:17;;;;;;;4.43;1.55;;;;;;;;;;4991029;28;20026;-47
2021/03/25 14:43:45;;;;;;;7.00;1.52;;;;;;;;;;4990191;28;20418;-45
2021/03/25 14:46:11;;;;;;;5.15;1.98;;;;;;;;;;4989814;28;20053;-45
2021/03/25 14:48:39;;;;;;;7.80;1.60;;;;;;;;;;4973974;28;20471;-46
2021/03/25 14:51:09;;;;;;;6.50;1.90;;;;;;;;;;4990920;28;20041;-45
2021/03/25 14:53:37;;;;;;;5.45;1.63;;;;;;;;;;4991174;28;20022;-44
2021/03/25 14:56:05;;;;;;;6.55;1.70;;;;;;;;;;4981489;28;20026;-44